Time;durP1;ratioP1;P1;durP2;ratioP2;P2;SDS_P1;SDS_P2;PMS_P1;PMS_P2;Temp;Humidity;BMP_temperature;BMP_pressure;BME280_temperature;BME280_humidity;BME280_pressure;Samples;Min_cycle;Max_cycle;Signal;HPM_P1;HPM_P2
2022/04/30 00:02:01;;;;;;;15.77;7.85;;;;;;;7.30;74.36;102972.31;5092321;28;20099;-33
2022/04/30 00:04:26;;;;;;;15.88;7.40;;;;;;;7.26;74.50;102966.31;5102034;28;20128;-35
2022/04/30 00:06:51;;;;;;;14.35;6.40;;;;;;;7.19;74.47;102967.72;5112724;28;20126;-36
2022/04/30 00:09:16;;;;;;;18.83;7.00;;;;;;;7.22;74.54;102964.84;5112913;28;20312;-34
2022/04/30 00:11:42;;;;;;;13.10;6.10;;;;;;;7.25;74.35;102965.47;5110165;28;20020;-33
2022/04/30 00:14:07;;;;;;;11.75;6.68;;;;;;;7.25;74.29;102964.63;5092683;28;20033;-36
2022/04/30 00:16:32;;;;;;;17.70;6.22;;;;;;;7.19;74.45;102963.22;5092569;28;20225;-35
2022/04/30 00:18:59;;;;;;;13.27;6.63;;;;;;;7.16;74.42;102974.16;5099262;28;20035;-36
2022/04/30 00:21:24;;;;;;;15.43;6.10;;;;;;;7.14;74.54;102965.38;5112534;28;20057;-33
2022/04/30 00:23:49;;;;;;;14.73;5.93;;;;;;;7.13;74.26;102966.31;5107170;28;20105;-35
2022/04/30 00:26:15;;;;;;;16.55;6.85;;;;;;;7.17;74.18;102964.28;5107465;28;20036;-36
2022/04/30 00:28:41;;;;;;;15.40;5.65;;;;;;;7.14;74.31;102973.41;5092537;28;20005;-34
2022/04/30 00:31:07;;;;;;;16.30;5.70;;;;;;;7.12;74.34;102964.59;5108308;28;20048;-35
2022/04/30 00:33:32;;;;;;;12.98;5.82;;;;;;;7.09;74.42;102959.47;5110657;28;20074;-34
2022/04/30 00:35:59;;;;;;;12.13;5.55;;;;;;;7.06;74.55;102959.69;5092965;28;20089;-34
2022/04/30 00:38:25;;;;;;;12.48;5.57;;;;;;;7.05;74.68;102957.97;5091315;28;20029;-33
2022/04/30 00:40:50;;;;;;;11.65;5.00;;;;;;;7.08;74.99;102964.91;5103809;28;20096;-33
2022/04/30 00:43:16;;;;;;;8.48;4.82;;;;;;;7.03;74.93;102959.91;5103575;28;20054;-34
2022/04/30 00:45:46;;;;;;;12.07;5.68;;;;;;;6.96;75.27;102954.13;5103595;28;20024;-33
2022/04/30 00:48:11;;;;;;;11.68;6.25;;;;;;;7.03;75.28;102958.09;5110277;28;20039;-35
2022/04/30 00:50:37;;;;;;;12.98;5.57;;;;;;;7.02;75.19;102951.00;5112868;28;20032;-33
2022/04/30 00:53:03;;;;;;;12.10;5.20;;;;;;;6.95;75.24;102943.50;5112657;28;20028;-36
2022/04/30 00:55:30;;;;;;;13.93;5.10;;;;;;;6.87;75.51;102941.34;5102880;28;20274;-32
2022/04/30 00:57:59;;;;;;;10.95;5.80;;;;;;;6.89;75.81;102946.59;5103976;28;20053;-32
2022/04/30 01:00:26;;;;;;;13.32;6.00;;;;;;;6.91;75.78;102944.69;5112225;28;20050;-33
2022/04/30 01:02:52;;;;;;;11.90;5.63;;;;;;;6.95;75.58;102943.50;5112620;28;20040;-33
2022/04/30 01:05:17;;;;;;;16.65;6.00;;;;;;;6.97;75.87;102945.09;5106152;28;20366;-34
2022/04/30 01:07:43;;;;;;;10.63;5.78;;;;;;;6.95;75.49;102935.47;5099295;28;20139;-34
2022/04/30 01:10:09;;;;;;;11.57;5.85;;;;;;;6.89;75.52;102936.75;5098354;28;20021;-34
2022/04/30 01:12:35;;;;;;;11.75;5.97;;;;;;;6.92;75.70;102941.03;5103816;28;20029;-33
2022/04/30 01:15:05;;;;;;;12.05;5.80;;;;;;;6.88;75.81;102937.72;5093072;28;20025;-33
2022/04/30 01:17:31;;;;;;;10.43;5.55;;;;;;;6.86;75.74;102934.28;5090745;28;20036;-33
2022/04/30 01:19:57;;;;;;;17.27;6.20;;;;;;;6.80;76.02;102932.91;5091698;28;20016;-34
2022/04/30 01:22:49;;;;;;;10.77;4.88;;;;;;;6.81;75.74;102929.25;5090909;28;20047;-35
2022/04/30 01:25:14;;;;;;;14.02;5.82;;;;;;;6.75;76.05;102929.69;5096346;28;20027;-34
2022/04/30 01:27:40;;;;;;;10.82;5.30;;;;;;;6.73;76.30;102934.28;5111797;28;20028;-34
2022/04/30 01:30:06;;;;;;;11.07;6.03;;;;;;;6.67;76.83;102925.84;5107982;28;20032;-34
2022/04/30 01:38:05;;;;;;;11.38;5.65;;;;;;;6.69;77.05;102918.53;5107988;28;20048;-35
2022/04/30 01:40:30;;;;;;;17.45;6.60;;;;;;;6.67;77.08;102917.81;5103068;28;20041;-33
2022/04/30 01:43:01;;;;;;;11.52;5.60;;;;;;;6.60;77.13;102912.00;5100011;28;20047;-33
2022/04/30 01:45:27;;;;;;;18.27;6.22;;;;;;;6.61;77.55;102913.75;5111705;28;20040;-35
2022/04/30 01:47:53;;;;;;;13.75;6.25;;;;;;;6.59;77.46;102907.63;5103170;28;20127;-33
2022/04/30 01:50:19;;;;;;;12.77;6.47;;;;;;;6.60;77.40;102917.34;5095626;28;20019;-32
2022/04/30 01:52:44;;;;;;;15.90;6.38;;;;;;;6.53;77.80;102913.38;5108399;28;20028;-34
2022/04/30 01:55:10;;;;;;;16.17;6.88;;;;;;;6.54;77.82;102912.44;5108903;28;20032;-33
2022/04/30 01:57:38;;;;;;;13.07;5.97;;;;;;;6.44;77.81;102904.16;5107376;28;20028;-35
2022/04/30 02:00:04;;;;;;;;;;;;;;;6.45;78.12;102913.03;5092121;28;20024;-35
2022/04/30 02:02:35;;;;;;;14.07;7.07;;;;;;;6.42;78.40;102907.91;5091244;28;19912;-34
2022/04/30 02:05:05;;;;;;;14.88;6.97;;;;;;;6.41;78.41;102900.84;5089771;28;20020;-34
2022/04/30 02:07:31;;;;;;;14.32;6.75;;;;;;;6.43;78.52;102898.94;5091448;28;20032;-33
2022/04/30 02:09:58;;;;;;;13.77;7.13;;;;;;;6.36;78.36;102902.00;5092225;28;20033;-33
2022/04/30 02:12:24;;;;;;;15.82;7.53;;;;;;;6.37;78.34;102895.72;5103071;28;20613;-34
2022/04/30 02:14:52;;;;;;;13.45;7.65;;;;;;;6.40;78.42;102891.97;5088548;28;20032;-34
2022/04/30 02:17:19;;;;;;;16.63;7.88;;;;;;;6.45;78.11;102888.97;5088178;28;20028;-35
2022/04/30 02:22:30;;;;;;;21.60;8.07;;;;;;;6.33;78.71;102886.19;5090003;28;20285;-34
2022/04/30 02:24:59;;;;;;;15.98;7.22;;;;;;;6.37;78.59;102881.47;5102227;28;20043;-33
2022/04/30 02:27:25;;;;;;;24.55;8.50;;;;;;;6.36;78.46;102882.44;5108107;28;20036;-34
2022/04/30 02:29:50;;;;;;;13.45;8.02;;;;;;;6.40;78.41;102883.06;5103107;28;20399;-35
2022/04/30 02:32:19;;;;;;;13.98;7.40;;;;;;;6.42;78.22;102882.00;5096743;28;20058;-35
2022/04/30 02:34:45;;;;;;;14.70;8.40;;;;;;;6.51;78.04;102885.91;5108603;28;20024;-35
2022/04/30 02:37:14;;;;;;;15.38;7.97;;;;;;;6.56;77.93;102886.44;5091406;28;20039;-35
2022/04/30 02:39:43;;;;;;;13.02;7.32;;;;;;;6.58;78.15;102885.38;5107674;28;20036;-33
2022/04/30 02:42:08;;;;;;;14.48;7.75;;;;;;;6.69;78.06;102883.75;5110017;28;20070;-33
2022/04/30 02:44:34;;;;;;;15.73;8.52;;;;;;;6.71;78.10;102887.19;5105105;28;20029;-35
2022/04/30 02:47:00;;;;;;;18.67;8.00;;;;;;;6.79;77.80;102883.03;5088654;28;20024;-34
2022/04/30 02:49:25;;;;;;;18.15;8.00;;;;;;;6.82;77.62;102877.47;5089411;28;20024;-34
2022/04/30 02:51:50;;;;;;;14.77;7.95;;;;;;;6.89;77.31;102868.97;5102051;28;20032;-35
2022/04/30 02:54:15;;;;;;;18.95;8.55;;;;;;;6.91;77.29;102869.75;5103560;28;20084;-35
2022/04/30 02:56:42;;;;;;;14.18;7.97;;;;;;;6.98;77.48;102871.03;5090278;28;20048;-37
2022/04/30 03:01:51;;;;;;;11.90;7.45;;;;;;;7.16;76.66;102871.50;5089115;28;20059;-34
2022/04/30 03:04:16;;;;;;;15.73;7.60;;;;;;;7.20;76.23;102865.84;5090059;28;20029;-33
2022/04/30 03:06:42;;;;;;;12.45;7.35;;;;;;;7.26;75.68;102873.41;5093768;28;20028;-36
2022/04/30 03:09:07;;;;;;;17.35;7.63;;;;;;;7.28;75.78;102865.28;5094010;28;20090;-34
2022/04/30 03:11:32;;;;;;;13.27;7.03;;;;;;;7.32;75.80;102864.13;5089843;28;20036;-34
2022/04/30 03:13:58;;;;;;;12.48;7.47;;;;;;;7.35;75.11;102863.88;5089362;28;20025;-34
2022/04/30 03:21:52;;;;;;;15.40;6.85;;;;;;;7.46;75.02;102849.72;5103490;28;20101;-33
2022/04/30 03:24:18;;;;;;;19.40;6.60;;;;;;;7.44;75.38;102847.13;5105727;28;20039;-34
2022/04/30 03:26:48;;;;;;;13.20;7.30;;;;;;;7.53;74.76;102853.66;5104983;28;20053;-37
2022/04/30 03:29:15;;;;;;;14.05;7.28;;;;;;;7.53;74.58;102850.09;5099094;28;20028;-35
2022/04/30 03:31:41;;;;;;;11.68;6.40;;;;;;;7.51;74.57;102855.59;5108435;28;20024;-33
2022/04/30 03:34:08;;;;;;;12.70;6.07;;;;;;;7.59;74.66;102850.50;5108755;28;20642;-33
2022/04/30 03:36:33;;;;;;;11.30;5.97;;;;;;;7.59;74.63;102845.16;5107006;28;20032;-34
2022/04/30 03:38:59;;;;;;;13.30;6.75;;;;;;;7.58;74.24;102842.56;5108027;28;20447;-36
2022/04/30 03:41:24;;;;;;;12.27;6.50;;;;;;;7.58;74.06;102838.09;5101480;28;20093;-34
2022/04/30 03:43:49;;;;;;;12.02;6.50;;;;;;;7.60;74.34;102841.50;5095017;28;20050;-36
2022/04/30 03:46:17;;;;;;;11.63;6.65;;;;;;;7.62;74.29;102846.75;5106797;28;20079;-34
2022/04/30 03:48:42;;;;;;;14.00;6.93;;;;;;;7.62;74.84;102839.56;5093983;28;20047;-34
2022/04/30 03:51:08;;;;;;;11.73;6.18;;;;;;;7.66;74.30;102833.03;5103079;28;20016;-34
2022/04/30 03:53:33;;;;;;;9.75;5.80;;;;;;;7.61;74.61;102832.50;5109572;28;20306;-35
2022/04/30 03:56:00;;;;;;;12.88;5.95;;;;;;;7.62;74.89;102834.22;5109274;28;20032;-36
2022/04/30 03:58:26;;;;;;;14.05;6.20;;;;;;;7.66;74.86;102838.38;5088891;28;20089;-37
2022/04/30 04:00:53;;;;;;;11.57;6.50;;;;;;;7.64;74.89;102837.63;5089298;28;20071;-36
2022/04/30 04:03:19;;;;;;;11.00;6.50;;;;;;;7.65;74.91;102831.28;5099004;28;20039;-38
2022/04/30 04:05:47;;;;;;;12.38;6.30;;;;;;;7.68;75.01;102836.41;5089319;28;20021;-37
2022/04/30 04:08:14;;;;;;;10.40;6.40;;;;;;;7.70;74.79;102839.84;5108680;28;20077;-37
2022/04/30 04:10:41;;;;;;;10.15;6.95;;;;;;;7.75;74.52;102838.66;5109529;28;20487;-35
2022/04/30 04:18:35;;;;;;;10.13;6.50;;;;;;;7.77;74.96;102847.44;5112538;28;20086;-34
2022/04/30 04:21:00;;;;;;;18.05;7.13;;;;;;;7.76;75.11;102848.41;5098269;28;20044;-34
2022/04/30 04:23:25;;;;;;;11.30;6.40;;;;;;;7.77;75.48;102842.09;5092623;28;20035;-36
2022/04/30 04:26:00;;;;;;;12.00;7.07;;;;;;;7.80;75.27;102852.59;5089287;28;20028;-36
2022/04/30 04:28:29;;;;;;;10.77;6.22;;;;;;;7.87;75.02;102848.44;5089823;28;20376;-34
2022/04/30 04:30:56;;;;;;;10.07;6.15;;;;;;;7.89;74.86;102857.25;5089476;28;20055;-36
2022/04/30 04:33:22;;;;;;;11.65;5.93;;;;;;;7.94;74.51;102849.72;5103476;28;20070;-35
2022/04/30 04:35:47;;;;;;;13.13;6.28;;;;;;;7.95;74.11;102851.41;5112610;28;20024;-36
2022/04/30 04:38:12;;;;;;;9.95;5.97;;;;;;;7.98;74.28;102850.31;5112795;28;20047;-36
2022/04/30 04:40:38;;;;;;;8.90;5.95;;;;;;;7.97;74.03;102849.47;5102737;28;20032;-34
2022/04/30 04:43:03;;;;;;;15.93;6.25;;;;;;;7.97;74.32;102849.47;5073196;28;20025;-34
2022/04/30 04:45:29;;;;;;;11.40;6.00;;;;;;;8.01;74.10;102850.97;5090658;28;20075;-36
2022/04/30 04:47:54;;;;;;;12.13;5.22;;;;;;;8.06;74.04;102854.16;5088744;28;20020;-35
2022/04/30 04:50:23;;;;;;;12.98;6.38;;;;;;;8.11;73.71;102862.72;5087919;28;20033;-35
2022/04/30 04:52:48;;;;;;;12.93;6.85;;;;;;;8.17;73.36;102855.16;5105726;28;20024;-36
2022/04/30 04:55:15;;;;;;;10.52;6.05;;;;;;;8.11;73.71;102857.34;5104204;28;20058;-34
2022/04/30 04:57:40;;;;;;;12.90;5.55;;;;;;;8.05;74.10;102868.50;5089684;28;20032;-36
2022/04/30 05:00:09;;;;;;;14.48;6.10;;;;;;;8.09;74.29;102864.66;5090434;28;20028;-37
2022/04/30 05:02:35;;;;;;;8.80;5.68;;;;;;;8.06;73.96;102864.88;5099196;28;20029;-36
2022/04/30 05:05:00;;;;;;;11.02;5.78;;;;;;;8.04;74.17;102863.28;5103013;28;20028;-34
2022/04/30 05:07:26;;;;;;;12.77;5.88;;;;;;;8.04;74.45;102866.81;5090990;28;20129;-35
2022/04/30 05:09:52;;;;;;;10.65;5.20;;;;;;;8.06;74.17;102864.88;5091869;28;20028;-34
2022/04/30 05:12:17;;;;;;;11.38;5.15;;;;;;;8.03;75.03;102854.38;5098067;28;20023;-34
2022/04/30 05:14:42;;;;;;;12.45;6.05;;;;;;;8.03;75.25;102854.38;5110918;28;20036;-34
2022/04/30 05:17:08;;;;;;;8.15;5.30;;;;;;;8.05;75.08;102859.63;5108449;28;20424;-39
2022/04/30 05:19:33;;;;;;;11.48;4.80;;;;;;;8.11;74.71;102862.72;5109117;28;20036;-36
2022/04/30 05:21:59;;;;;;;10.68;5.05;;;;;;;8.18;74.36;102856.88;5107183;28;20129;-34
2022/04/30 05:24:24;;;;;;;9.48;5.10;;;;;;;8.20;74.40;102862.97;5089069;28;20024;-35
2022/04/30 05:26:50;;;;;;;11.25;5.05;;;;;;;8.21;74.12;102864.69;5089071;28;20135;-34
2022/04/30 05:29:16;;;;;;;10.60;4.75;;;;;;;8.24;74.21;102865.31;5087681;28;20071;-38
2022/04/30 05:31:42;;;;;;;10.82;4.47;;;;;;;8.24;74.45;102867.13;5097158;28;20032;-38
2022/04/30 05:34:07;;;;;;;7.13;4.78;;;;;;;8.32;74.04;102867.38;5102586;28;20124;-36
2022/04/30 05:36:32;;;;;;;9.05;4.78;;;;;;;8.39;73.72;102870.47;5088510;28;20029;-36
2022/04/30 05:38:59;;;;;;;9.38;4.60;;;;;;;8.36;74.07;102866.19;5088553;28;20044;-35
2022/04/30 05:41:24;;;;;;;11.35;4.63;;;;;;;8.41;73.87;102863.19;5102320;28;20032;-34
2022/04/30 05:43:50;;;;;;;9.85;4.80;;;;;;;8.46;73.67;102864.53;5092697;28;20020;-35
2022/04/30 05:46:15;;;;;;;8.32;3.85;;;;;;;8.50;73.16;102863.31;5107895;28;20028;-33
2022/04/30 05:48:40;;;;;;;8.07;4.13;;;;;;;8.50;73.60;102863.31;5090775;28;20789;-38
2022/04/30 05:51:06;;;;;;;7.10;3.75;;;;;;;8.57;73.81;102869.06;5097640;28;20368;-35
2022/04/30 05:53:31;;;;;;;11.95;4.20;;;;;;;8.53;73.46;102857.75;5086489;28;20032;-35
2022/04/30 05:55:57;;;;;;;13.77;4.28;;;;;;;8.55;73.58;102860.28;5086976;28;20028;-36
2022/04/30 05:58:22;;;;;;;14.10;4.47;;;;;;;8.60;73.46;102858.09;5090738;28;20042;-36
2022/04/30 06:00:47;;;;;;;12.07;4.07;;;;;;;8.65;72.32;102855.06;5092031;28;20032;-34
2022/04/30 06:03:13;;;;;;;9.40;4.22;;;;;;;8.72;71.77;102862.53;5090437;28;20029;-34
2022/04/30 06:05:38;;;;;;;11.05;4.63;;;;;;;8.78;71.17;102856.66;5091874;28;20047;-36
2022/04/30 06:08:05;;;;;;;11.65;4.78;;;;;;;8.82;70.95;102861.78;5093093;28;20039;-34
2022/04/30 06:10:30;;;;;;;9.10;3.83;;;;;;;8.87;70.65;102860.44;5094320;28;20691;-34
2022/04/30 06:12:56;;;;;;;13.40;4.43;;;;;;;8.85;71.16;102859.72;5107105;28;20038;-35
2022/04/30 06:15:22;;;;;;;10.25;4.43;;;;;;;8.87;70.98;102857.75;5101635;28;20027;-36
2022/04/30 06:17:47;;;;;;;11.93;4.55;;;;;;;8.92;70.26;102863.63;5105959;28;20032;-33
2022/04/30 06:20:12;;;;;;;7.57;4.20;;;;;;;8.97;69.95;102858.72;5101499;28;20028;-36
2022/04/30 06:22:37;;;;;;;5.90;4.30;;;;;;;8.98;69.48;102867.66;5104031;28;20043;-35
2022/04/30 06:25:04;;;;;;;9.25;4.07;;;;;;;9.01;68.87;102868.28;5091574;28;20046;-34
2022/04/30 06:27:29;;;;;;;12.73;4.30;;;;;;;9.11;69.00;102872.91;5099164;28;20060;-33
2022/04/30 06:29:54;;;;;;;6.80;3.92;;;;;;;9.12;68.85;102863.88;5099531;28;20038;-33
2022/04/30 06:32:20;;;;;;;11.30;4.20;;;;;;;9.16;68.79;102876.94;5091738;28;20094;-35
2022/04/30 06:34:45;;;;;;;7.50;4.22;;;;;;;9.18;68.78;102864.22;5103137;28;20061;-35
2022/04/30 06:37:10;;;;;;;16.17;4.70;;;;;;;9.25;69.44;102864.59;5099092;28;20079;-34
2022/04/30 06:39:36;;;;;;;22.88;5.38;;;;;;;9.29;69.28;102866.03;5092155;28;20032;-37
2022/04/30 06:42:01;;;;;;;17.63;4.63;;;;;;;9.38;69.77;102859.09;5093750;28;20123;-34
2022/04/30 06:44:26;;;;;;;11.18;4.60;;;;;;;9.48;69.31;102864.56;5093945;28;20267;-33
2022/04/30 06:46:52;;;;;;;10.18;4.28;;;;;;;9.60;68.01;102867.09;5106981;28;20028;-36
2022/04/30 06:49:17;;;;;;;7.80;3.67;;;;;;;9.55;67.25;102868.44;5101676;28;20040;-35
2022/04/30 06:51:42;;;;;;;8.35;3.65;;;;;;;9.60;66.55;102867.09;5099158;28;20036;-34
2022/04/30 06:59:54;;;;;;;8.10;3.70;;;;;;;9.67;63.22;102865.63;5099272;28;20203;-33
2022/04/30 07:02:23;;;;;;;7.50;3.58;;;;;;;9.71;63.14;102860.81;5088524;28;20059;-36
2022/04/30 07:04:52;;;;;;;;;;;;;;;9.75;63.38;102862.28;5096842;28;20043;-36
2022/04/30 07:07:18;;;;;;;10.13;4.22;;;;;;;9.74;62.72;102854.34;5085807;28;19926;-33
2022/04/30 07:09:44;;;;;;;7.45;3.58;;;;;;;9.77;61.94;102851.41;5092325;28;20063;-34
2022/04/30 07:12:11;;;;;;;8.55;3.60;;;;;;;9.80;62.17;102860.09;5097650;28;20535;-33
2022/04/30 07:14:37;;;;;;;6.85;3.50;;;;;;;9.87;62.47;102853.22;5086121;28;20040;-33
2022/04/30 07:17:22;;;;;;;5.45;3.75;;;;;;;10.07;62.00;102851.53;5085814;28;20024;-32
2022/04/30 07:19:47;;;;;;;8.55;3.58;;;;;;;10.21;61.37;102853.03;5101295;28;20043;-34
2022/04/30 07:22:13;;;;;;;7.38;3.83;;;;;;;10.49;60.38;102854.28;5103751;28;20040;-33
2022/04/30 07:24:38;;;;;;;5.72;3.58;;;;;;;10.84;59.62;102857.59;5086433;28;20025;-33
2022/04/30 07:27:04;;;;;;;5.45;3.67;;;;;;;11.15;58.91;102853.88;5085728;28;20027;-32
2022/04/30 07:29:31;;;;;;;6.50;3.80;;;;;;;11.65;57.37;102850.31;5088561;28;20036;-33
2022/04/30 07:31:56;;;;;;;6.70;3.70;;;;;;;12.13;56.53;102857.59;5104051;28;20451;-33
2022/04/30 07:34:22;;;;;;;5.90;3.67;;;;;;;12.56;56.14;102855.41;5105214;28;20040;-32
2022/04/30 07:36:48;;;;;;;4.63;3.33;;;;;;;12.65;55.15;102854.56;5096887;28;20059;-34
2022/04/30 07:39:14;;;;;;;6.70;3.42;;;;;;;12.82;54.54;102861.03;5092087;28;20024;-34
2022/04/30 07:41:40;;;;;;;6.70;3.38;;;;;;;12.75;53.45;102860.78;5093460;28;20025;-32
2022/04/30 07:44:05;;;;;;;9.13;4.07;;;;;;;12.46;55.37;102856.31;5084307;28;20116;-33
2022/04/30 07:46:30;;;;;;;13.30;4.07;;;;;;;12.33;54.96;102855.75;5086297;28;20039;-34
2022/04/30 07:48:56;;;;;;;8.85;3.45;;;;;;;12.59;54.83;102849.75;5107023;28;20024;-33
2022/04/30 07:51:34;;;;;;;11.20;3.63;;;;;;;13.46;53.66;102851.25;5097482;28;20054;-35
2022/04/30 07:54:03;;;;;;;7.82;3.22;;;;;;;14.23;52.03;102856.03;5108647;28;20059;-33
2022/04/30 07:56:28;;;;;;;7.57;3.50;;;;;;;14.82;50.51;102856.28;5106563;28;20103;-35
2022/04/30 07:58:54;;;;;;;10.15;3.30;;;;;;;15.84;50.09;102854.50;5092807;28;20029;-33
2022/04/30 08:01:19;;;;;;;10.20;3.42;;;;;;;17.42;45.54;102854.88;5092100;28;20104;-34
2022/04/30 08:03:44;;;;;;;7.22;3.25;;;;;;;17.77;42.64;102850.75;5097339;28;20086;-33
2022/04/30 08:06:10;;;;;;;6.60;2.72;;;;;;;18.89;39.97;102856.44;5091442;28;20391;-33
2022/04/30 08:08:36;;;;;;;7.18;3.08;;;;;;;18.98;40.12;102858.03;5091028;28;20028;-33
2022/04/30 08:11:01;;;;;;;7.55;2.90;;;;;;;18.79;39.18;102853.16;5088941;28;20025;-36
2022/04/30 08:13:26;;;;;;;4.47;2.72;;;;;;;18.64;38.14;102855.81;5087488;28;20032;-33
2022/04/30 08:15:52;;;;;;;6.03;3.05;;;;;;;17.55;41.12;102861.44;5088301;28;20039;-33
2022/04/30 08:18:17;;;;;;;7.85;2.83;;;;;;;17.30;41.65;102854.47;5088439;28;20027;-32
2022/04/30 08:20:43;;;;;;;9.52;3.15;;;;;;;17.54;41.45;102857.03;5088699;28;20479;-34
2022/04/30 08:23:08;;;;;;;3.92;2.58;;;;;;;16.72;41.83;102858.34;5088806;28;20044;-36
2022/04/30 08:25:35;;;;;;;5.38;2.95;;;;;;;15.90;43.71;102851.09;5097926;28;20044;-36
2022/04/30 08:28:01;;;;;;;8.07;3.10;;;;;;;15.18;45.61;102860.72;5097107;28;20125;-34
2022/04/30 08:30:26;;;;;;;5.15;3.00;;;;;;;15.31;46.19;102852.97;5107660;28;20028;-33
2022/04/30 08:32:51;;;;;;;6.85;3.67;;;;;;;16.38;44.75;102852.13;5108999;28;20047;-34
2022/04/30 08:35:17;;;;;;;7.78;3.05;;;;;;;17.41;42.74;102847.75;5094844;28;20032;-33
2022/04/30 08:37:42;;;;;;;4.65;3.00;;;;;;;17.57;40.78;102850.38;5099446;28;20050;-33
2022/04/30 08:40:08;;;;;;;4.90;2.50;;;;;;;17.28;40.78;102851.91;5099055;28;20122;-34
2022/04/30 08:42:33;;;;;;;4.10;2.75;;;;;;;16.34;41.94;102845.31;5094504;28;20033;-34
2022/04/30 08:45:02;;;;;;;6.70;2.78;;;;;;;15.21;44.37;102847.69;5090998;28;20355;-34
2022/04/30 08:47:29;;;;;;;5.20;3.10;;;;;;;14.67;47.62;102845.22;5087056;28;20484;-33
2022/04/30 08:49:55;;;;;;;12.48;3.53;;;;;;;13.95;50.32;102849.03;5087717;28;20037;-33
2022/04/30 08:52:21;;;;;;;11.15;3.72;;;;;;;13.33;54.37;102848.91;5088936;28;20060;-33
2022/04/30 08:54:46;;;;;;;8.82;3.80;;;;;;;12.82;57.84;102855.63;5088865;28;20028;-33
2022/04/30 08:57:12;;;;;;;10.25;3.75;;;;;;;12.34;60.84;102852.03;5090607;28;20020;-34
2022/04/30 08:59:37;;;;;;;9.60;4.22;;;;;;;11.93;63.38;102845.97;5088239;28;20501;-34
2022/04/30 09:02:08;;;;;;;10.35;4.10;;;;;;;11.76;64.59;102850.19;5088823;28;20036;-33
2022/04/30 09:04:45;;;;;;;7.90;3.83;;;;;;;12.00;64.58;102849.78;5088891;28;20268;-33
2022/04/30 09:07:24;;;;;;;6.90;4.32;;;;;;;12.34;65.39;102846.66;5099825;28;20039;-35
2022/04/30 09:09:58;;;;;;;12.02;4.45;;;;;;;12.48;65.33;102854.31;5109326;28;20020;-34
2022/04/30 09:12:24;;;;;;;8.65;3.80;;;;;;;12.51;65.10;102848.63;5108834;28;20055;-38
2022/04/30 09:14:50;;;;;;;8.13;3.67;;;;;;;12.17;66.05;102845.53;5102457;28;20058;-37
2022/04/30 09:17:16;;;;;;;6.13;3.50;;;;;;;11.89;66.01;102852.63;5098272;28;20028;-33
2022/04/30 09:19:44;;;;;;;8.20;4.13;;;;;;;11.53;67.00;102846.91;5086533;28;20060;-35
2022/04/30 09:22:10;;;;;;;8.13;3.90;;;;;;;11.37;68.81;102841.16;5105731;28;20046;-35
2022/04/30 09:24:48;;;;;;;8.98;4.40;;;;;;;11.17;69.32;102845.69;5107149;28;20041;-35
2022/04/30 09:27:18;;;;;;;10.13;4.22;;;;;;;11.01;70.11;102845.34;5091517;28;20040;-35
2022/04/30 09:29:44;;;;;;;7.07;3.97;;;;;;;10.99;71.21;102837.38;5111195;28;20024;-35
2022/04/30 09:32:16;;;;;;;6.18;4.20;;;;;;;10.85;71.79;102843.13;5108907;28;20067;-32
2022/04/30 09:37:41;;;;;;;12.93;5.05;;;;;;;10.79;72.61;102830.19;5101780;28;20055;-35
2022/04/30 09:40:13;;;;;;;17.75;4.88;;;;;;;10.72;72.87;102833.44;5116614;28;20046;-35
2022/04/30 09:42:38;;;;;;;14.18;4.47;;;;;;;10.67;73.58;102827.59;5109858;28;20036;-36
2022/04/30 09:45:04;;;;;;;13.52;5.28;;;;;;;10.56;74.54;102830.38;5107961;28;20027;-34
2022/04/30 09:47:34;;;;;;;10.77;5.53;;;;;;;10.46;74.85;102824.94;5094676;28;20048;-35
2022/04/30 09:55:33;;;;;;;11.05;4.13;;;;;;;10.81;74.71;102820.16;5109190;28;20108;-39
2022/04/30 09:58:03;;;;;;;13.32;3.83;;;;;;;10.95;74.41;102814.38;5100385;28;20031;-34
2022/04/30 10:00:31;;;;;;;10.32;3.78;;;;;;;11.26;72.22;102809.78;5101788;28;20008;-33
2022/04/30 10:03:00;;;;;;;6.97;3.70;;;;;;;11.59;70.67;102811.28;5099320;28;20048;-34
2022/04/30 10:05:26;;;;;;;7.45;3.53;;;;;;;11.65;70.58;102805.31;5097297;28;20074;-32
2022/04/30 10:07:51;;;;;;;11.40;4.38;;;;;;;11.75;68.57;102796.38;5096512;28;20029;-34
2022/04/30 10:10:21;;;;;;;10.02;3.45;;;;;;;11.80;67.93;102799.50;5095724;28;20104;-35
2022/04/30 10:13:15;;;;;;;9.73;3.15;;;;;;;11.83;67.42;102799.22;5091184;28;20040;-32
2022/04/30 10:15:53;;;;;;;6.13;2.97;;;;;;;12.15;66.30;102798.94;5069005;28;20138;-37
2022/04/30 10:18:20;;;;;;;11.57;3.00;;;;;;;12.56;64.23;102796.00;5103148;28;20084;-36
2022/04/30 10:20:52;;;;;;;6.90;2.05;;;;;;;12.58;63.48;102804.81;5109696;28;20043;-34
2022/04/30 10:23:18;;;;;;;5.47;2.08;;;;;;;12.59;61.89;102795.72;5097223;28;20108;-35
2022/04/30 10:25:47;;;;;;;7.60;2.40;;;;;;;12.83;61.36;102787.09;5105362;28;20032;-34
2022/04/30 10:28:22;;;;;;;5.72;2.03;;;;;;;13.02;60.32;102791.53;5097602;28;20055;-38
2022/04/30 10:31:04;;;;;;;4.78;2.05;;;;;;;13.82;59.78;102784.44;5085756;28;20024;-37
2022/04/30 10:33:34;;;;;;;8.43;2.20;;;;;;;15.27;56.98;102791.91;5103730;28;20156;-37
2022/04/30 10:36:10;;;;;;;3.70;1.63;;;;;;;16.04;51.93;102789.84;5094146;28;20506;-36
2022/04/30 10:38:36;;;;;;;6.72;2.03;;;;;;;16.10;52.40;102777.44;5102470;28;20028;-34
2022/04/30 10:41:03;;;;;;;7.68;1.80;;;;;;;16.15;48.58;102786.78;5094197;28;20028;-35
2022/04/30 10:43:32;;;;;;;10.82;2.10;;;;;;;15.69;50.85;102781.03;5096485;28;20028;-35
2022/04/30 10:45:58;;;;;;;5.38;1.80;;;;;;;15.40;51.59;102781.44;5089351;28;20293;-36
2022/04/30 10:48:24;;;;;;;8.90;2.50;;;;;;;15.03;51.99;102779.97;5096853;28;20033;-35
2022/04/30 10:51:02;;;;;;;6.68;1.88;;;;;;;14.69;52.96;102780.00;5116940;28;20028;-37
2022/04/30 10:53:28;;;;;;;10.68;2.70;;;;;;;14.23;53.64;102777.50;5125025;28;20089;-35
2022/04/30 10:55:54;;;;;;;9.73;2.10;;;;;;;13.83;55.02;102776.19;5105201;28;20032;-34
2022/04/30 10:58:23;;;;;;;7.18;2.17;;;;;;;13.48;56.63;102770.78;5107370;28;20012;-33
2022/04/30 11:00:49;;;;;;;2.92;2.10;;;;;;;13.36;58.55;102764.75;5107724;28;20110;-33
2022/04/30 11:03:14;;;;;;;6.72;2.25;;;;;;;13.25;57.99;102768.50;5107305;28;20088;-33
2022/04/30 11:05:42;;;;;;;10.05;2.20;;;;;;;13.29;57.50;102758.25;5108265;28;20036;-34
2022/04/30 11:08:07;;;;;;;11.40;2.35;;;;;;;13.00;59.27;102761.94;5107288;28;20085;-34
2022/04/30 11:10:33;;;;;;;10.77;3.22;;;;;;;12.88;59.55;102764.03;5106811;28;20020;-34
2022/04/30 11:13:05;;;;;;;6.63;2.63;;;;;;;12.83;59.32;102771.72;5106876;28;20023;-34
2022/04/30 11:15:31;;;;;;;8.13;3.15;;;;;;;13.36;58.56;102756.63;5107159;28;20061;-34
2022/04/30 11:17:58;;;;;;;3.38;2.30;;;;;;;14.28;58.09;102775.16;5106121;28;20073;-36
2022/04/30 11:20:24;;;;;;;7.85;2.58;;;;;;;15.78;52.91;102766.41;5106935;28;20021;-34
2022/04/30 11:22:56;;;;;;;3.35;1.70;;;;;;;15.89;49.76;102759.78;5111926;28;20043;-33
2022/04/30 11:25:23;;;;;;;5.45;2.05;;;;;;;16.72;48.65;102769.50;5112304;28;20072;-33
2022/04/30 11:27:56;;;;;;;6.10;2.03;;;;;;;16.65;47.20;102765.78;5112926;28;20020;-34
2022/04/30 11:30:21;;;;;;;3.95;1.70;;;;;;;16.84;46.64;102765.38;5111224;28;20042;-34
2022/04/30 11:32:48;;;;;;;7.25;2.30;;;;;;;16.43;47.02;102757.34;5111432;28;20052;-33
2022/04/30 11:35:16;;;;;;;9.32;2.45;;;;;;;16.08;48.55;102764.03;5110308;28;20115;-35
2022/04/30 11:37:42;;;;;;;6.82;1.90;;;;;;;16.23;47.18;102761.47;5110852;28;20039;-33
2022/04/30 11:40:09;;;;;;;5.72;1.60;;;;;;;15.88;47.58;102763.53;5110963;28;20055;-33
2022/04/30 11:42:34;;;;;;;5.80;1.63;;;;;;;15.78;47.61;102762.88;5109401;28;20066;-34
2022/04/30 11:45:00;;;;;;;3.80;1.60;;;;;;;15.75;47.44;102758.63;5110912;28;20719;-34
2022/04/30 11:47:25;;;;;;;4.53;1.67;;;;;;;16.15;45.41;102758.75;5110983;28;20036;-33
2022/04/30 11:50:03;;;;;;;5.82;1.92;;;;;;;16.01;45.79;102746.75;5111976;28;20038;-34
2022/04/30 11:52:29;;;;;;;4.93;1.80;;;;;;;15.90;46.96;102744.34;5110333;28;20024;-33
2022/04/30 11:54:54;;;;;;;5.07;1.50;;;;;;;15.88;46.09;102743.69;5110091;28;20027;-34
2022/04/30 11:57:21;;;;;;;6.10;1.65;;;;;;;15.79;45.44;102730.09;5110831;28;20159;-33
2022/04/30 11:59:47;;;;;;;7.35;1.50;;;;;;;16.27;44.08;102732.06;5111506;28;20024;-33
2022/04/30 12:02:14;;;;;;;4.28;1.52;;;;;;;16.42;44.49;102733.91;5111090;28;20031;-36